Latest Weather Observations for Mornington Island Airport

IDQ60801

Issued at 11:32 pm EST Saturday 15 December 2018 (issued every 10 minutes, with the page automatically refreshed every 10 minutes)

About weather observations | Map of weather stations | Latest weather observations for QLD | Other Formats
Station Details ID: 029182 Name: MORNINGTON ISLAND AIRPORT Lat: -16.66 Lon: 139.17 Height: 9.52 m
Data from the previous 72 hours. | See also: Recent months at Mornington Island Airport
Date/Time
EST
Temp
°C
App
Temp
°C
Dew
Point
°C
Rel
Hum
%
Delta-T
°C
Wind Press
QNH
hPa
Press
MSL
hPa
Rain since
9am
mm
Dir  Spd
km/h
Gust
km/h
Spd
kts
Gust
kts
15/11:30pm 28.9 31.2 25.1 80 2.7 NNW 22 28 12 15 1005.3 1005.2 0.0
15/11:00pm 29.0 31.5 25.4 81 2.5 NNW 22 26 12 14 1005.5 1005.4 0.0
15/10:30pm 29.1 31.4 24.4 76 3.3 NNW 20 26 11 14 1005.4 1005.3 0.0
15/10:00pm 28.9 31.4 24.5 77 3.1 NNW 19 24 10 13 1005.3 1005.2 0.0
15/09:30pm 29.0 32.1 24.8 78 2.9 NNW 17 22 9 12 1004.8 1004.7 0.0
15/09:00pm 28.9 31.9 24.7 78 2.9 NNW 17 20 9 11 1004.5 1004.4 0.0
15/08:30pm 28.8 32.5 24.6 78 2.9 NNW 13 17 7 9 1004.0 1003.9 0.0
15/08:00pm 28.9 33.1 24.7 78 2.9 N 11 15 6 8 1004.0 1003.9 0.0
15/07:30pm 29.1 32.9 24.7 77 3.1 NNW 13 20 7 11 1004.2 1004.1 0.0
15/07:00pm 29.3 32.5 24.4 75 3.4 NNW 15 19 8 10 1004.1 1004.0 0.0
15/06:30pm 29.8 32.2 24.2 72 3.9 NNW 19 22 10 12 1003.8 1003.7 0.0
15/06:00pm 30.5 33.4 25.1 73 3.8 NW 19 22 10 12 1003.6 1003.5 0.0
15/05:30pm 30.7 33.3 24.6 70 4.3 NW 19 24 10 13 1003.5 1003.4 0.0
15/05:00pm 31.0 33.9 24.4 68 4.6 NW 17 22 9 12 1003.2 1003.1 0.0
15/04:30pm 31.9 35.7 24.7 65 5.1 W 13 22 7 12 1003.1 1003.0 0.0
15/04:00pm 32.1 35.3 23.1 59 6.2 S 11 15 6 8 1003.1 1003.0 0.0
15/03:30pm 31.7 34.5 23.0 60 6.0 SSE 13 20 7 11 1003.1 1003.0 0.0
15/03:00pm 31.8 34.8 23.3 60 5.9 SSE 13 20 7 11 1003.2 1003.1 0.0
15/02:30pm 31.9 35.1 23.7 62 5.7 SSE 13 20 7 11 1003.4 1003.3 0.0
15/02:00pm 31.4 34.1 23.5 63 5.5 SSE 15 24 8 13 1003.4 1003.3 0.0
15/01:30pm 31.3 33.7 22.9 61 5.8 SE 15 22 8 12 1003.8 1003.7 0.0
15/01:00pm 31.4 33.4 23.0 61 5.8 SE 17 24 9 13 1004.0 1003.9 0.0
15/12:30pm 30.4 31.8 22.8 64 5.2 ESE 20 28 11 15 1004.3 1004.2 0.0
15/12:00pm 30.3 32.0 23.0 65 5.0 ESE 19 26 10 14 1005.0 1004.9 0.0
15/11:30am 30.2 32.1 23.4 67 4.7 SE 19 28 10 15 1005.3 1005.2 0.0
15/11:00am 29.5 31.2 23.4 69 4.2 SE 20 30 11 16 1005.4 1005.3 0.0
15/10:30am 28.9 30.7 23.6 73 3.6 SE 20 30 11 16 1005.8 1005.7 0.0
15/10:00am 28.5 30.2 23.4 74 3.5 SE 20 35 11 19 1005.9 1005.8 0.0
15/09:30am 28.2 30.0 23.6 76 3.2 SE 20 33 11 18 1005.9 1005.8 0.0
15/09:00am 28.0 29.7 23.4 76 3.2 SE 20 32 11 17 1005.3 1005.2 3.0
15/08:30am 27.7 29.5 23.5 78 2.9 SSE 20 33 11 18 1005.3 1005.2 3.0
15/08:00am 27.1 29.1 23.6 81 2.4 SSE 19 30 10 16 1004.9 1004.8 3.0
15/07:30am 27.3 29.5 24.0 82 2.3 SSE 19 30 10 16 1004.7 1004.6 3.0
15/07:00am 27.0 29.7 24.1 84 2.0 S 17 30 9 16 1004.6 1004.5 3.0
15/06:30am 26.9 30.5 24.4 86 1.7 S 13 26 7 14 1004.0 1003.9 3.0
15/06:00am 27.0 29.8 24.3 85 1.9 S 17 28 9 15 1003.6 1003.5 3.0
15/05:30am 27.6 29.7 23.8 80 2.6 SSE 19 30 10 16 1003.2 1003.1 3.0
15/05:00am 27.7 30.0 24.1 81 2.5 SSE 19 30 10 16 1002.8 1002.7 3.0
15/04:30am 27.8 29.8 24.0 80 2.6 SE 20 35 11 19 1002.8 1002.7 3.0
15/04:00am 27.6 30.0 24.2 82 2.4 SE 19 30 10 16 1002.6 1002.5 3.0
15/03:30am 27.7 30.5 24.3 82 2.4 SE 17 28 9 15 1002.4 1002.3 3.0
15/03:00am 27.7 30.0 24.5 83 2.2 SE 20 33 11 18 1002.1 1002.0 3.0
15/02:30am 27.5 29.0 24.4 83 2.1 SE 24 33 13 18 1002.1 1002.0 2.8
15/02:00am 27.5 29.9 24.6 84 2.0 SE 20 33 11 18 1002.4 1002.3 2.8
15/01:30am 27.4 29.9 24.7 85 1.9 SE 20 32 11 17 1002.6 1002.5 2.8
15/01:00am 27.0 29.2 23.9 83 2.1 ESE 19 28 10 15 1002.8 1002.7 2.8
15/12:30am 27.5 29.6 24.7 85 1.9 ESE 22 32 12 17 1003.0 1002.9 2.8
15/12:00am 27.4 30.1 24.8 86 1.8 SE 19 32 10 17 1002.8 1002.7 2.8
 
Date/Time
EST
Temp
°C
App
Temp
°C
Dew
Point
°C
Rel
Hum
%
Delta-T
°C
Wind Press
QNH
hPa
Press
MSL
hPa
Rain since
9am
mm
Dir  Spd
km/h
Gust
km/h
Spd
kts
Gust
kts
14/11:30pm 26.9 29.7 24.9 89 1.4 SE 19 26 10 14 1003.0 1002.9 2.0
14/11:00pm 27.8 28.8 24.2 81 2.5 ESE 26 35 14 19 1003.1 1003.0 1.6
14/10:30pm 28.0 29.4 24.2 80 2.6 SE 24 35 13 19 1003.0 1002.9 1.6
14/10:00pm 28.2 29.1 24.0 78 2.9 SE 26 39 14 21 1003.0 1002.9 1.4
14/09:30pm 28.1 29.6 24.3 80 2.6 SE 24 41 13 22 1003.0 1002.9 1.4
14/09:00pm 27.5 28.8 24.1 82 2.4 SE 24 33 13 18 1002.3 1002.2 1.4
14/08:37pm 27.2 27.7 23.9 82 2.3 SE 28 46 15 25 1002.1 1002.0 1.4
14/08:30pm 27.3 27.7 23.7 81 2.5 ESE 28 43 15 23 1001.8 1001.7 1.4
14/08:00pm 27.5 26.8 24.1 82 2.4 E 35 50 19 27 1001.1 1001.0 1.4
14/07:30pm 28.2 27.4 24.0 78 2.9 ESE 35 50 19 27 1001.2 1001.1 1.4
14/07:00pm 28.3 28.7 23.7 76 3.2 SE 28 43 15 23 1001.3 1001.2 1.4
14/06:32pm 28.2 28.6 23.8 77 3.0 SE 28 46 15 25 1001.2 1001.1 1.4
14/06:30pm 28.3 29.2 23.9 77 3.0 SE 26 41 14 22 1001.2 1001.1 1.4
14/06:09pm 28.4 28.2 24.0 77 3.0 ESE 32 50 17 27 1001.2 1001.1 1.4
14/06:00pm 28.4 28.4 23.8 76 3.2 SE 30 44 16 24 1001.3 1001.2 1.4
14/05:41pm 27.7 28.4 24.3 82 2.4 ESE 28 46 15 25 1001.4 1001.3 1.4
14/05:30pm 28.5 28.2 23.9 76 3.2 ESE 32 46 17 25 1001.2 1001.1 1.4
14/05:00pm 28.4 27.8 23.3 74 3.5 ESE 32 46 17 25 1001.0 1000.9 1.4
14/04:47pm 28.3 28.5 24.1 78 2.9 E 30 48 16 26 1001.0 1000.9 1.4
14/04:30pm 28.5 28.0 23.6 75 3.4 ESE 32 43 17 23 1000.9 1000.8 1.4
14/04:16pm 28.3 28.8 23.9 77 3.0 ESE 28 48 15 26 1000.7 1000.6 1.4
14/04:00pm 28.1 28.8 24.3 80 2.6 ESE 28 39 15 21 1001.0 1000.9 1.4
14/03:30pm 28.3 27.9 23.7 76 3.2 E 32 43 17 23 1000.9 1000.8 1.4
14/03:00pm 28.1 27.8 23.9 78 2.9 ESE 32 43 17 23 1000.7 1000.6 1.4
14/02:30pm 28.0 28.0 24.4 81 2.5 E 32 48 17 26 1000.7 1000.6 1.4
14/02:00pm 27.8 26.5 23.8 79 2.8 E 37 57 20 31 1001.1 1001.0 1.4
14/01:47pm 28.1 27.5 23.7 77 3.0 E 33 52 18 28 1001.1 1001.0 1.4
14/01:30pm 28.1 28.4 24.3 80 2.6 E 30 46 16 25 1001.3 1001.2 1.4
14/01:00pm 27.6 27.7 23.2 77 3.0 E 28 43 15 23 1002.2 1002.1 1.4
14/12:30pm 26.2 27.2 24.1 88 1.4 E 26 33 14 18 1002.6 1002.5 1.4
14/12:22pm 26.0 27.1 24.4 91 1.1 E 26 35 14 19 1002.7 1002.6 1.4
14/12:19pm 25.9 26.7 24.5 92 1.0 E 28 46 15 25 1002.8 1002.7 1.4
14/12:10pm 25.7 25.0 24.1 91 1.1 E 35 50 19 27 1002.9 1002.8 1.4
14/12:00pm 26.3 25.6 24.2 88 1.5 ENE 35 48 19 26 1003.0 1002.9 0.4
14/11:40am 27.0 26.1 24.5 86 1.7 E 37 56 20 30 1003.2 1003.1 0.4
14/11:33am 27.4 26.5 24.5 84 2.0 E 37 50 20 27 1003.1 1003.0 0.4
14/11:30am 27.7 27.3 24.7 84 2.1 E 35 50 19 27 1003.0 1002.9 0.4
14/11:25am 27.9 28.6 24.9 84 2.1 E 30 50 16 27 1002.8 1002.7 0.4
14/11:16am 27.8 29.4 25.8 89 1.4 E 28 35 15 19 1002.7 1002.6 0.4
14/11:00am 27.7 30.6 25.9 90 1.3 E 22 33 12 18 1002.9 1002.8 0.4
14/10:30am 27.2 30.6 25.8 92 1.0 E 19 24 10 13 1003.2 1003.1 0.4
14/10:00am 26.4 28.4 24.6 90 1.3 E 22 37 12 20 1004.0 1003.9 0.4
14/09:30am 27.4 30.9 25.4 89 1.4 E 17 20 9 11 1004.3 1004.2 0.0
14/09:00am 27.2 30.7 25.4 90 1.3 E 17 20 9 11 1004.7 1004.6 2.8
14/08:30am 26.4 30.1 25.2 93 0.8 ESE 15 20 8 11 1004.9 1004.8 2.6
14/08:00am 25.9 29.2 24.5 92 1.0 E 15 19 8 10 1004.8 1004.7 2.6
14/07:30am 25.6 29.2 24.4 93 0.8 ESE 13 17 7 9 1004.2 1004.1 2.4
14/07:00am 25.3 29.0 23.9 92 1.0 ENE 11 15 6 8 1003.6 1003.5 2.4
14/06:30am 24.9 27.9 23.3 91 1.1 ENE 13 19 7 10 1003.4 1003.3 2.4
14/06:00am 25.0 27.1 23.1 89 1.3 ENE 17 20 9 11 1002.9 1002.8 2.2
14/05:30am 25.2 27.3 23.1 88 1.4 ENE 17 24 9 13 1003.0 1002.9 1.8
14/05:00am 25.5 28.2 23.4 88 1.4 NNE 15 22 8 12 1003.5 1003.4 1.6
14/04:30am 25.6 28.0 22.9 85 1.8 NNE 15 20 8 11 1002.9 1002.8 1.4
14/04:00am 27.0 30.6 24.3 85 1.9 NE 13 22 7 12 1002.7 1002.6 1.0
14/03:30am 27.3 31.0 24.6 85 1.9 NE 13 20 7 11 1002.9 1002.8 1.0
14/03:00am 27.4 29.2 23.6 80 2.6 N 20 30 11 16 1002.3 1002.2 1.0
14/02:30am 26.8 31.0 24.8 89 1.4 NE 11 15 6 8 1002.7 1002.6 1.0
14/02:00am 26.9 30.7 25.3 91 1.1 NE 15 20 8 11 1003.1 1003.0 1.0
14/01:30am 27.1 31.3 25.3 90 1.3 NE 13 24 7 13 1003.5 1003.4 0.8
14/01:00am 26.8 30.5 25.2 91 1.1 ENE 15 19 8 10 1003.5 1003.4 0.8
14/12:30am 26.2 29.9 24.6 91 1.1 ENE 13 17 7 9 1004.1 1004.0 0.6
14/12:00am 26.4 30.0 24.4 89 1.4 ENE 13 19 7 10 1004.7 1004.6 0.4
 
Date/Time
EST
Temp
°C
App
Temp
°C
Dew
Point
°C
Rel
Hum
%
Delta-T
°C
Wind Press
QNH
hPa
Press
MSL
hPa
Rain since
9am
mm
Dir  Spd
km/h
Gust
km/h
Spd
kts
Gust
kts
13/11:30pm 26.4 28.8 24.2 88 1.5 E 19 24 10 13 1004.9 1004.8 0.4
13/11:00pm 26.5 28.3 24.3 88 1.5 ESE 22 30 12 16 1005.4 1005.3 0.4
13/10:30pm 26.4 28.5 24.1 87 1.6 E 20 28 11 15 1005.6 1005.5 0.4
13/10:00pm 26.4 28.6 24.2 88 1.5 ESE 20 32 11 17 1005.5 1005.4 0.4
13/09:30pm 26.8 29.8 24.6 88 1.5 E 17 20 9 11 1005.5 1005.4 0.4
13/09:00pm 26.9 30.4 24.2 85 1.9 ENE 13 17 7 9 1005.4 1005.3 0.4
13/08:30pm 27.3 30.8 24.2 83 2.1 ESE 13 20 7 11 1005.2 1005.1 0.4
13/08:00pm 28.0 34.0 26.4 91 1.1 NE 7 9 4 5 1005.0 1004.9 0.4
13/07:30pm 28.2 34.2 26.4 90 1.3 E 7 7 4 4 1004.9 1004.8 0.2
13/07:00pm 28.4 34.4 26.4 89 1.4 E 7 9 4 5 1004.9 1004.8 0.2
13/06:30pm 28.5 34.5 26.3 88 1.6 NNE 7 9 4 5 1004.7 1004.6 0.2
13/06:00pm 28.8 34.1 25.8 84 2.1 NE 9 13 5 7 1004.0 1003.9 0.2
13/05:30pm 29.2 34.1 25.8 82 2.4 NNE 11 17 6 9 1004.1 1004.0 0.0
13/05:00pm 29.2 32.9 25.8 82 2.4 N 17 28 9 15 1004.1 1004.0 0.0
13/04:30pm 29.1 32.6 25.5 81 2.5 N 17 26 9 14 1004.2 1004.1 0.0
13/04:00pm 29.2 32.2 25.6 81 2.6 N 20 30 11 16 1004.4 1004.3 0.0
13/03:30pm 29.7 32.8 25.7 79 2.8 N 20 26 11 14 1004.4 1004.3 0.0
13/03:00pm 29.9 32.9 25.6 78 3.1 N 20 28 11 15 1004.3 1004.2 0.0
13/02:30pm 30.2 32.0 25.5 76 3.3 NNE 26 37 14 20 1004.4 1004.3 0.0
13/02:00pm 30.5 32.7 24.9 72 3.9 NNE 22 35 12 19 1004.7 1004.6 0.0
13/01:30pm 30.8 33.0 24.9 71 4.1 NNE 22 32 12 17 1004.9 1004.8 0.0
13/01:00pm 30.5 32.6 25.3 74 3.7 NNE 24 33 13 18 1005.4 1005.3 0.0
13/12:30pm 30.4 32.3 25.0 73 3.8 NNE 24 37 13 20 1005.5 1005.4 0.0
13/12:00pm 30.5 33.0 25.3 74 3.7 NNE 22 33 12 18 1005.7 1005.6 0.0
13/11:30am 30.2 32.8 25.5 76 3.3 NNE 22 32 12 17 1005.9 1005.8 0.0
13/11:00am 30.0 32.9 25.1 75 3.5 NNE 19 33 10 18 1006.3 1006.2 0.0
13/10:30am 30.1 32.2 24.7 73 3.8 NNE 22 35 12 19 1006.5 1006.4 0.0
13/10:00am 29.9 32.2 24.5 73 3.8 NNE 20 28 11 15 1006.5 1006.4 0.0
13/09:30am 30.3 33.0 25.1 73 3.7 NNE 20 33 11 18 1006.6 1006.5 0.0
13/09:00am 30.5 33.1 24.9 72 3.9 NNE 20 28 11 15 1006.3 1006.2 3.8
13/08:30am 29.6 32.6 24.7 75 3.4 NNE 17 26 9 14 1006.4 1006.3 3.8
13/08:00am 28.1 30.9 23.7 77 3.0 NE 15 19 8 10 1006.4 1006.3 3.8
13/07:30am 27.5 30.7 23.1 77 3.0 NNE 11 17 6 9 1006.2 1006.1 3.8
13/07:00am 27.5 30.1 23.9 81 2.5 NNE 17 22 9 12 1006.0 1005.9 3.8
13/06:30am 27.1 32.1 26.0 94 0.8 ENE 11 13 6 7 1005.6 1005.5 3.8
13/06:00am 27.1 32.5 26.0 94 0.8 E 9 11 5 6 1005.2 1005.1 3.8
13/05:30am 27.3 33.1 26.1 93 0.8 E 7 9 4 5 1004.9 1004.8 3.8
13/05:00am 27.2 32.6 26.0 93 0.9 NE 9 13 5 7 1005.1 1005.0 3.8
13/04:30am 26.7 32.3 25.8 95 0.6 NE 7 11 4 6 1004.8 1004.7 3.8
13/04:00am 26.3 30.9 24.7 91 1.1 NNE 9 11 5 6 1004.4 1004.3 3.8
13/03:51am 26.5 31.1 24.7 90 1.3 NNE 9 15 5 8 1004.3 1004.2 3.8
13/03:31am 26.5 29.1 24.0 86 1.7 NNE 17 35 9 19 1004.6 1004.5 2.8
13/03:30am 27.4 31.3 25.4 89 1.4 NNE 15 32 8 17 1004.6 1004.5 1.4
13/03:00am 27.9 32.8 25.3 86 1.8 E 9 11 5 6 1004.5 1004.4 0.0
13/02:30am 28.2 32.8 25.4 85 2.0 E 11 13 6 7 1004.4 1004.3 0.0
13/02:00am 28.3 33.0 25.5 85 2.0 ENE 11 13 6 7 1004.7 1004.6 0.0
13/01:30am 28.4 33.0 25.4 84 2.1 ENE 11 13 6 7 1004.8 1004.7 0.0
13/01:00am 28.6 33.2 25.4 83 2.3 ENE 11 17 6 9 1005.1 1005.0 0.0
13/12:30am 28.9 32.7 25.3 81 2.5 NE 15 24 8 13 1005.0 1004.9 0.0
13/12:00am 28.8 32.9 25.2 81 2.5 NE 13 17 7 9 1005.0 1004.9 0.0

Other Formats:

Comma delimited format used in spreadsheet applications
http://www.bom.gov.au/fwo/IDQ60801/IDQ60801.94254.axf

JavaScript Object Notation format (JSON) in row-major order
http://www.bom.gov.au/fwo/IDQ60801/IDQ60801.94254.json